sensor_id;sensor_type;location;lat;lon;timestamp;pressure;altitude;pressure_sealevel;temperature;humidity
40075;BME280;26529;51.530;11.754;2022-12-18T00:01:21;101552.81;;;15.04;45.82
40075;BME280;26529;51.530;11.754;2022-12-18T00:03:47;101552.81;;;15.04;45.68
40075;BME280;26529;51.530;11.754;2022-12-18T00:06:14;101552.88;;;15.02;45.86
40075;BME280;26529;51.530;11.754;2022-12-18T00:08:44;101551.97;;;15.02;45.92
40075;BME280;26529;51.530;11.754;2022-12-18T00:11:15;101559.00;;;15.03;45.61
40075;BME280;26529;51.530;11.754;2022-12-18T00:13:42;101553.72;;;15.03;45.71
40075;BME280;26529;51.530;11.754;2022-12-18T00:16:11;101551.97;;;15.02;45.50
40075;BME280;26529;51.530;11.754;2022-12-18T00:18:37;101551.97;;;15.02;45.58
40075;BME280;26529;51.530;11.754;2022-12-18T00:21:05;101551.97;;;15.02;45.65
40075;BME280;26529;51.530;11.754;2022-12-18T00:23:32;101550.25;;;15.01;45.64
40075;BME280;26529;51.530;11.754;2022-12-18T00:26:03;101554.66;;;15.00;45.57
40075;BME280;26529;51.530;11.754;2022-12-18T00:28:30;101548.53;;;15.00;45.44
40075;BME280;26529;51.530;11.754;2022-12-18T00:31:04;101552.06;;;14.99;45.64
40075;BME280;26529;51.530;11.754;2022-12-18T00:33:30;101556.47;;;14.98;45.53
40075;BME280;26529;51.530;11.754;2022-12-18T00:36:04;101552.06;;;14.99;45.84
40075;BME280;26529;51.530;11.754;2022-12-18T00:38:32;101558.19;;;15.01;45.50
40075;BME280;26529;51.530;11.754;2022-12-18T00:40:58;101552.94;;;14.99;45.64
40075;BME280;26529;51.530;11.754;2022-12-18T00:43:24;101565.22;;;15.00;45.59
40075;BME280;26529;51.530;11.754;2022-12-18T00:45:50;101557.38;;;14.99;45.64
40075;BME280;26529;51.530;11.754;2022-12-18T00:48:16;101560.81;;;15.01;45.50
40075;BME280;26529;51.530;11.754;2022-12-18T00:50:42;101563.47;;;15.01;45.68
40075;BME280;26529;51.530;11.754;2022-12-18T00:53:07;101562.56;;;15.02;45.74
40075;BME280;26529;51.530;11.754;2022-12-18T00:55:40;101564.38;;;15.00;45.67
40075;BME280;26529;51.530;11.754;2022-12-18T00:58:07;101556.47;;;14.98;45.63
40075;BME280;26529;51.530;11.754;2022-12-18T01:00:34;101559.09;;;15.00;45.78
40075;BME280;26529;51.530;11.754;2022-12-18T01:03:01;101559.09;;;15.00;45.58
40075;BME280;26529;51.530;11.754;2022-12-18T01:05:27;101561.72;;;15.00;45.62
40075;BME280;26529;51.530;11.754;2022-12-18T01:07:52;101567.88;;;15.00;45.77
40075;BME280;26529;51.530;11.754;2022-12-18T01:10:19;101561.75;;;14.98;45.65
40075;BME280;26529;51.530;11.754;2022-12-18T01:12:44;101575.88;;;14.97;45.74
40075;BME280;26529;51.530;11.754;2022-12-18T01:15:12;101583.78;;;14.99;45.66
40075;BME280;26529;51.530;11.754;2022-12-18T01:17:38;101582.88;;;15.00;45.56
40075;BME280;26529;51.530;11.754;2022-12-18T01:20:04;101585.50;;;15.00;45.56
40075;BME280;26529;51.530;11.754;2022-12-18T01:22:33;101589.06;;;14.99;45.81
40075;BME280;26529;51.530;11.754;2022-12-18T01:24:59;101597.84;;;14.99;45.59
40075;BME280;26529;51.530;11.754;2022-12-18T01:27:24;101600.53;;;14.98;45.79
40075;BME280;26529;51.530;11.754;2022-12-18T01:29:50;101608.47;;;14.98;45.58
40075;BME280;26529;51.530;11.754;2022-12-18T01:32:18;101604.91;;;14.99;45.91
40075;BME280;26529;51.530;11.754;2022-12-18T01:34:44;101600.53;;;14.98;45.53
40075;BME280;26529;51.530;11.754;2022-12-18T01:37:09;101608.47;;;14.98;45.53
40075;BME280;26529;51.530;11.754;2022-12-18T01:39:35;101613.75;;;14.98;45.71
40075;BME280;26529;51.530;11.754;2022-12-18T01:42:09;101618.13;;;14.99;45.65
40075;BME280;26529;51.530;11.754;2022-12-18T01:47:49;101617.25;;;14.97;45.54
40075;BME280;26529;51.530;11.754;2022-12-18T01:52:48;101614.63;;;14.97;45.65
40075;BME280;26529;51.530;11.754;2022-12-18T01:55:16;101606.69;;;14.97;45.74
40075;BME280;26529;51.530;11.754;2022-12-18T01:57:43;101599.69;;;14.96;45.75
40075;BME280;26529;51.530;11.754;2022-12-18T02:00:16;101610.25;;;14.96;45.61
40075;BME280;26529;51.530;11.754;2022-12-18T02:02:43;101612.84;;;14.97;45.85
40075;BME280;26529;51.530;11.754;2022-12-18T02:05:10;101611.13;;;14.96;45.89
40075;BME280;26529;51.530;11.754;2022-12-18T02:07:45;101615.53;;;14.96;45.65
40075;BME280;26529;51.530;11.754;2022-12-18T02:18:32;101603.19;;;14.96;45.58
40075;BME280;26529;51.530;11.754;2022-12-18T02:21:12;101606.69;;;14.97;45.73
40075;BME280;26529;51.530;11.754;2022-12-18T02:29:06;101603.22;;;14.95;45.65
40075;BME280;26529;51.530;11.754;2022-12-18T02:31:47;101602.38;;;14.94;45.68
40075;BME280;26529;51.530;11.754;2022-12-18T02:34:17;101601.50;;;14.94;45.56
40075;BME280;26529;51.530;11.754;2022-12-18T02:36:46;101613.78;;;14.95;45.63
40075;BME280;26529;51.530;11.754;2022-12-18T02:39:13;101608.50;;;14.95;45.69
40075;BME280;26529;51.530;11.754;2022-12-18T02:41:51;101614.69;;;14.95;45.47
40075;BME280;26529;51.530;11.754;2022-12-18T02:44:18;101604.97;;;14.96;45.83
40075;BME280;26529;51.530;11.754;2022-12-18T02:46:50;101600.63;;;14.93;45.62
40075;BME280;26529;51.530;11.754;2022-12-18T02:52:25;101603.25;;;14.93;45.62
40075;BME280;26529;51.530;11.754;2022-12-18T02:55:18;101604.97;;;14.96;45.53
40075;BME280;26529;51.530;11.754;2022-12-18T02:58:12;101607.69;;;14.92;45.78
40075;BME280;26529;51.530;11.754;2022-12-18T03:03:31;101617.34;;;14.94;45.63
40075;BME280;26529;51.530;11.754;2022-12-18T03:06:05;101618.22;;;14.94;45.68
40075;BME280;26529;51.530;11.754;2022-12-18T03:08:37;101617.34;;;14.94;45.74
40075;BME280;26529;51.530;11.754;2022-12-18T03:11:07;101618.25;;;14.92;45.75
40075;BME280;26529;51.530;11.754;2022-12-18T03:13:39;101618.25;;;14.92;45.51
40075;BME280;26529;51.530;11.754;2022-12-18T03:16:10;101621.75;;;14.93;45.63
40075;BME280;26529;51.530;11.754;2022-12-18T03:18:48;101619.16;;;14.91;45.79
40075;BME280;26529;51.530;11.754;2022-12-18T03:21:17;101620.03;;;14.92;45.68
40075;BME280;26529;51.530;11.754;2022-12-18T03:23:49;101620.03;;;14.92;45.53
40075;BME280;26529;51.530;11.754;2022-12-18T03:26:22;101625.28;;;14.94;45.81
40075;BME280;26529;51.530;11.754;2022-12-18T03:28:59;101620.91;;;14.92;45.76
40075;BME280;26529;51.530;11.754;2022-12-18T03:31:28;101623.53;;;14.92;45.53
40075;BME280;26529;51.530;11.754;2022-12-18T03:33:57;101618.28;;;14.91;45.64
40075;BME280;26529;51.530;11.754;2022-12-18T03:36:32;101614.72;;;14.92;45.40
40075;BME280;26529;51.530;11.754;2022-12-18T03:38:57;101625.31;;;14.92;45.54
40075;BME280;26529;51.530;11.754;2022-12-18T03:41:41;101631.50;;;14.91;45.58
40075;BME280;26529;51.530;11.754;2022-12-18T03:44:28;101629.75;;;14.90;45.59
40075;BME280;26529;51.530;11.754;2022-12-18T03:49:45;101627.16;;;14.88;45.77
40075;BME280;26529;51.530;11.754;2022-12-18T03:52:23;101636.81;;;14.89;45.79
40075;BME280;26529;51.530;11.754;2022-12-18T03:54:53;101625.31;;;14.90;45.41
40075;BME280;26529;51.530;11.754;2022-12-18T03:57:23;101625.31;;;14.90;45.49
40075;BME280;26529;51.530;11.754;2022-12-18T03:59:56;101631.53;;;14.89;45.73
40075;BME280;26529;51.530;11.754;2022-12-18T04:02:26;101640.34;;;14.88;45.64
40075;BME280;26529;51.530;11.754;2022-12-18T04:04:58;101646.47;;;14.90;45.58
40075;BME280;26529;51.530;11.754;2022-12-18T04:07:24;101640.28;;;14.91;45.64
40075;BME280;26529;51.530;11.754;2022-12-18T04:09:53;101642.94;;;14.91;45.64
40075;BME280;26529;51.530;11.754;2022-12-18T04:12:26;101632.41;;;14.90;45.64
40075;BME280;26529;51.530;11.754;2022-12-18T04:14:52;101620.97;;;14.89;45.71
40075;BME280;26529;51.530;11.754;2022-12-18T04:17:18;101619.22;;;14.88;45.58
40075;BME280;26529;51.530;11.754;2022-12-18T04:19:43;101621.88;;;14.88;45.62
40075;BME280;26529;51.530;11.754;2022-12-18T04:22:10;101628.06;;;14.87;45.49
40075;BME280;26529;51.530;11.754;2022-12-18T04:24:41;101619.25;;;14.87;45.44
40075;BME280;26529;51.530;11.754;2022-12-18T04:27:35;101620.09;;;14.89;45.62
40075;BME280;26529;51.530;11.754;2022-12-18T04:30:03;101617.47;;;14.89;45.60
40075;BME280;26529;51.530;11.754;2022-12-18T04:32:29;101618.38;;;14.88;45.51
40075;BME280;26529;51.530;11.754;2022-12-18T04:34:55;101620.97;;;14.89;45.33
40075;BME280;26529;51.530;11.754;2022-12-18T04:37:21;101610.44;;;14.88;45.46
40075;BME280;26529;51.530;11.754;2022-12-18T04:39:48;101609.56;;;14.87;45.57
40075;BME280;26529;51.530;11.754;2022-12-18T04:42:21;101609.56;;;14.87;45.35
40075;BME280;26529;51.530;11.754;2022-12-18T04:44:47;101612.22;;;14.87;45.37
40075;BME280;26529;51.530;11.754;2022-12-18T04:47:12;101613.94;;;14.88;45.78
40075;BME280;26529;51.530;11.754;2022-12-18T04:49:38;101616.59;;;14.88;45.46
40075;BME280;26529;51.530;11.754;2022-12-18T04:52:04;101614.84;;;14.87;45.64
40075;BME280;26529;51.530;11.754;2022-12-18T04:54:29;101611.34;;;14.87;45.56
40075;BME280;26529;51.530;11.754;2022-12-18T04:56:54;101615.72;;;14.88;45.72
40075;BME280;26529;51.530;11.754;2022-12-18T04:59:20;101612.22;;;14.87;45.39
40075;BME280;26529;51.530;11.754;2022-12-18T05:01:45;101620.13;;;14.87;45.44
40075;BME280;26529;51.530;11.754;2022-12-18T05:04:11;101613.94;;;14.88;45.48
40075;BME280;26529;51.530;11.754;2022-12-18T05:06:36;101613.94;;;14.88;45.49
40075;BME280;26529;51.530;11.754;2022-12-18T05:09:02;101616.63;;;14.87;45.50
40075;BME280;26529;51.530;11.754;2022-12-18T05:11:28;101623.66;;;14.88;45.55
40075;BME280;26529;51.530;11.754;2022-12-18T05:13:53;101626.31;;;14.86;45.66
40075;BME280;26529;51.530;11.754;2022-12-18T05:16:19;101633.34;;;14.87;45.60
40075;BME280;26529;51.530;11.754;2022-12-18T05:18:44;101639.56;;;14.85;45.48
40075;BME280;26529;51.530;11.754;2022-12-18T05:21:10;101641.34;;;14.84;45.61
40075;BME280;26529;51.530;11.754;2022-12-18T05:23:36;101642.16;;;14.86;45.54
40075;BME280;26529;51.530;11.754;2022-12-18T05:26:04;101647.44;;;14.86;45.54
40075;BME280;26529;51.530;11.754;2022-12-18T05:28:31;101651.00;;;14.85;45.40
40075;BME280;26529;51.530;11.754;2022-12-18T05:30:59;101646.56;;;14.86;45.48
40075;BME280;26529;51.530;11.754;2022-12-18T05:33:28;101644.84;;;14.85;45.62
40075;BME280;26529;51.530;11.754;2022-12-18T05:35:56;101641.34;;;14.84;45.55
40075;BME280;26529;51.530;11.754;2022-12-18T05:38:23;101640.47;;;14.84;45.53
40075;BME280;26529;51.530;11.754;2022-12-18T05:40:50;101649.22;;;14.86;45.52
40075;BME280;26529;51.530;11.754;2022-12-18T05:43:16;101644.00;;;14.84;45.31
40075;BME280;26529;51.530;11.754;2022-12-18T05:45:42;101644.00;;;14.84;45.48
40075;BME280;26529;51.530;11.754;2022-12-18T05:48:08;101642.22;;;14.83;45.43
40075;BME280;26529;51.530;11.754;2022-12-18T05:50:35;101646.63;;;14.84;45.46
40075;BME280;26529;51.530;11.754;2022-12-18T05:53:02;101645.78;;;14.82;45.43
40075;BME280;26529;51.530;11.754;2022-12-18T05:55:28;101654.56;;;14.84;45.65
40075;BME280;26529;51.530;11.754;2022-12-18T05:57:53;101657.22;;;14.83;45.26
40075;BME280;26529;51.530;11.754;2022-12-18T06:00:19;101658.97;;;14.82;45.35
40075;BME280;26529;51.530;11.754;2022-12-18T06:02:47;101653.66;;;14.84;45.53
40075;BME280;26529;51.530;11.754;2022-12-18T06:05:13;101663.34;;;14.83;45.60
40075;BME280;26529;51.530;11.754;2022-12-18T06:07:39;101666.91;;;14.82;45.48
40075;BME280;26529;51.530;11.754;2022-12-18T06:10:06;101662.50;;;14.83;45.47
40075;BME280;26529;51.530;11.754;2022-12-18T06:12:32;101659.88;;;14.81;45.50
40075;BME280;26529;51.530;11.754;2022-12-18T06:14:59;101663.34;;;14.83;45.61
40075;BME280;26529;51.530;11.754;2022-12-18T06:17:29;101661.63;;;14.82;45.28
40075;BME280;26529;51.530;11.754;2022-12-18T06:19:54;101657.22;;;14.83;45.41
40075;BME280;26529;51.530;11.754;2022-12-18T06:22:20;101661.63;;;14.82;45.34
40075;BME280;26529;51.530;11.754;2022-12-18T06:24:46;101662.53;;;14.81;45.47
40075;BME280;26529;51.530;11.754;2022-12-18T06:27:11;101656.41;;;14.81;45.35
40075;BME280;26529;51.530;11.754;2022-12-18T06:29:36;101665.16;;;14.81;45.43
40075;BME280;26529;51.530;11.754;2022-12-18T06:32:02;101663.44;;;14.80;45.33
40075;BME280;26529;51.530;11.754;2022-12-18T06:34:27;101675.72;;;14.81;45.29
40075;BME280;26529;51.530;11.754;2022-12-18T06:36:56;101682.84;;;14.79;45.55
40075;BME280;26529;51.530;11.754;2022-12-18T06:39:21;101674.88;;;14.81;45.49
40075;BME280;26529;51.530;11.754;2022-12-18T06:41:47;101673.09;;;14.81;45.49
40075;BME280;26529;51.530;11.754;2022-12-18T06:44:12;101674.00;;;14.80;45.39
40075;BME280;26529;51.530;11.754;2022-12-18T06:46:38;101686.28;;;14.81;45.41
40075;BME280;26529;51.530;11.754;2022-12-18T06:49:03;101688.03;;;14.82;45.34
40075;BME280;26529;51.530;11.754;2022-12-18T06:51:29;101674.88;;;14.81;45.64
40075;BME280;26529;51.530;11.754;2022-12-18T06:53:55;101667.00;;;14.79;45.48
40075;BME280;26529;51.530;11.754;2022-12-18T06:56:20;101666.09;;;14.80;45.41
40075;BME280;26529;51.530;11.754;2022-12-18T06:58:46;101666.09;;;14.80;45.55
40075;BME280;26529;51.530;11.754;2022-12-18T07:01:12;101673.13;;;14.79;45.43
40075;BME280;26529;51.530;11.754;2022-12-18T07:03:39;101675.75;;;14.79;45.48
40075;BME280;26529;51.530;11.754;2022-12-18T07:06:05;101680.19;;;14.79;45.37
40075;BME280;26529;51.530;11.754;2022-12-18T07:08:31;101682.84;;;14.79;45.51
40075;BME280;26529;51.530;11.754;2022-12-18T07:10:57;101680.22;;;14.77;45.55
40075;BME280;26529;51.530;11.754;2022-12-18T07:13:23;101686.38;;;14.78;45.28
40075;BME280;26529;51.530;11.754;2022-12-18T07:15:48;101696.94;;;14.78;45.49
40075;BME280;26529;51.530;11.754;2022-12-18T07:18:14;101694.31;;;14.78;45.31
40075;BME280;26529;51.530;11.754;2022-12-18T07:20:40;101697.81;;;14.77;45.38
40075;BME280;26529;51.530;11.754;2022-12-18T07:23:05;101696.94;;;14.78;45.36
40075;BME280;26529;51.530;11.754;2022-12-18T07:25:34;101701.31;;;14.79;45.33
40075;BME280;26529;51.530;11.754;2022-12-18T07:28:00;101706.59;;;14.79;45.52
40075;BME280;26529;51.530;11.754;2022-12-18T07:30:26;101697.78;;;14.78;45.18
40075;BME280;26529;51.530;11.754;2022-12-18T07:32:51;101694.31;;;14.76;45.39
40075;BME280;26529;51.530;11.754;2022-12-18T07:35:17;101695.19;;;14.77;45.44
40075;BME280;26529;51.530;11.754;2022-12-18T07:37:42;101694.31;;;14.78;45.49
40075;BME280;26529;51.530;11.754;2022-12-18T07:40:08;101699.47;;;14.83;45.26
40075;BME280;26529;51.530;11.754;2022-12-18T07:42:34;101693.25;;;14.85;45.26
40075;BME280;26529;51.530;11.754;2022-12-18T07:45:01;101706.47;;;14.85;45.44
40075;BME280;26529;51.530;11.754;2022-12-18T07:47:28;101712.66;;;14.84;45.59
40075;BME280;26529;51.530;11.754;2022-12-18T07:49:53;101712.66;;;14.84;45.54
40075;BME280;26529;51.530;11.754;2022-12-18T07:52:19;101710.88;;;14.83;45.53
40075;BME280;26529;51.530;11.754;2022-12-18T07:54:45;101718.88;;;14.82;45.54
40075;BME280;26529;51.530;11.754;2022-12-18T07:57:10;101721.50;;;14.82;45.56
40075;BME280;26529;51.530;11.754;2022-12-18T07:59:36;101726.81;;;14.80;45.41
40075;BME280;26529;51.530;11.754;2022-12-18T08:02:02;101732.97;;;14.81;45.53
40075;BME280;26529;51.530;11.754;2022-12-18T08:04:28;101734.72;;;14.82;45.40
40075;BME280;26529;51.530;11.754;2022-12-18T08:06:54;101733.81;;;14.81;45.50
40075;BME280;26529;51.530;11.754;2022-12-18T08:09:19;101727.69;;;14.81;45.58
40075;BME280;26529;51.530;11.754;2022-12-18T08:11:45;101733.00;;;14.79;45.52
40075;BME280;26529;51.530;11.754;2022-12-18T08:14:10;101736.50;;;14.79;45.48
40075;BME280;26529;51.530;11.754;2022-12-18T08:16:36;101734.75;;;14.78;45.50
40075;BME280;26529;51.530;11.754;2022-12-18T08:19:02;101738.25;;;14.81;45.27
40075;BME280;26529;51.530;11.754;2022-12-18T08:21:29;101741.75;;;14.81;45.32
40075;BME280;26529;51.530;11.754;2022-12-18T08:23:57;101742.66;;;14.80;45.43
40075;BME280;26529;51.530;11.754;2022-12-18T08:26:26;101743.53;;;14.81;45.42
40075;BME280;26529;51.530;11.754;2022-12-18T08:28:54;101746.13;;;14.82;45.33
40075;BME280;26529;51.530;11.754;2022-12-18T08:31:20;101743.47;;;14.84;45.54
40075;BME280;26529;51.530;11.754;2022-12-18T08:33:48;101731.13;;;14.84;45.40
40075;BME280;26529;51.530;11.754;2022-12-18T08:36:14;101728.50;;;14.84;45.58
40075;BME280;26529;51.530;11.754;2022-12-18T08:38:40;101738.97;;;14.87;45.37
40075;BME280;26529;51.530;11.754;2022-12-18T08:41:08;101738.09;;;14.87;45.33
40075;BME280;26529;51.530;11.754;2022-12-18T08:43:34;101744.22;;;14.89;45.51
40075;BME280;26529;51.530;11.754;2022-12-18T08:46:20;101738.91;;;14.90;45.28
40075;BME280;26529;51.530;11.754;2022-12-18T08:48:46;101743.31;;;14.90;45.40
40075;BME280;26529;51.530;11.754;2022-12-18T08:51:12;101747.66;;;14.92;45.39
40075;BME280;26529;51.530;11.754;2022-12-18T08:53:38;101749.41;;;14.94;45.59
40075;BME280;26529;51.530;11.754;2022-12-18T08:56:04;101745.84;;;14.95;45.54
40075;BME280;26529;51.530;11.754;2022-12-18T08:58:30;101742.31;;;14.96;45.42
40075;BME280;26529;51.530;11.754;2022-12-18T09:01:03;101739.66;;;14.97;45.47
40075;BME280;26529;51.530;11.754;2022-12-18T09:03:28;101738.72;;;15.00;45.17
40075;BME280;26529;51.530;11.754;2022-12-18T09:05:54;101729.88;;;15.01;45.37
40075;BME280;26529;51.530;11.754;2022-12-18T09:08:19;101728.97;;;15.02;45.53
40075;BME280;26529;51.530;11.754;2022-12-18T09:10:48;101728.06;;;15.03;45.26
40075;BME280;26529;51.530;11.754;2022-12-18T09:13:15;101735.94;;;15.06;45.39
40075;BME280;26529;51.530;11.754;2022-12-18T09:15:42;101733.28;;;15.06;45.44
40075;BME280;26529;51.530;11.754;2022-12-18T09:18:09;101728.81;;;15.08;45.36
40075;BME280;26529;51.530;11.754;2022-12-18T09:20:35;101726.16;;;15.10;45.24
40075;BME280;26529;51.530;11.754;2022-12-18T09:23:01;101721.69;;;15.12;45.31
40075;BME280;26529;51.530;11.754;2022-12-18T09:25:29;101730.44;;;15.14;45.27
40075;BME280;26529;51.530;11.754;2022-12-18T09:27:59;101720.75;;;15.14;45.43
40075;BME280;26529;51.530;11.754;2022-12-18T09:30:25;101720.75;;;15.14;45.39
40075;BME280;26529;51.530;11.754;2022-12-18T09:32:51;101724.22;;;15.16;45.47
40075;BME280;26529;51.530;11.754;2022-12-18T09:35:16;101725.00;;;15.22;45.35
40075;BME280;26529;51.530;11.754;2022-12-18T09:37:42;101718.81;;;15.23;45.32
40075;BME280;26529;51.530;11.754;2022-12-18T09:40:14;101717.00;;;15.25;45.22
40075;BME280;26529;51.530;11.754;2022-12-18T09:42:46;101706.44;;;15.25;45.05
40075;BME280;26529;51.530;11.754;2022-12-18T09:45:15;101699.34;;;15.27;45.22
40075;BME280;26529;51.530;11.754;2022-12-18T09:47:43;101696.69;;;15.27;45.27
40075;BME280;26529;51.530;11.754;2022-12-18T09:50:24;101681.66;;;15.29;45.16
40075;BME280;26529;51.530;11.754;2022-12-18T09:52:55;101689.53;;;15.32;45.35
40075;BME280;26529;51.530;11.754;2022-12-18T09:55:28;101690.34;;;15.34;45.20
40075;BME280;26529;51.530;11.754;2022-12-18T09:57:57;101685.06;;;15.34;45.28
40075;BME280;26529;51.530;11.754;2022-12-18T10:00:26;101692.91;;;15.37;45.35
40075;BME280;26529;51.530;11.754;2022-12-18T10:02:55;101686.72;;;15.38;45.13
40075;BME280;26529;51.530;11.754;2022-12-18T10:08:21;101684.81;;;15.43;45.21
40075;BME280;26529;51.530;11.754;2022-12-18T10:10:50;101683.94;;;15.44;45.12
40075;BME280;26529;51.530;11.754;2022-12-18T10:13:44;101681.22;;;15.46;45.10
40075;BME280;26529;51.530;11.754;2022-12-18T10:16:22;101688.22;;;15.49;45.09
40075;BME280;26529;51.530;11.754;2022-12-18T10:25:02;101684.59;;;15.53;45.04
40075;BME280;26529;51.530;11.754;2022-12-18T10:27:30;101682.78;;;15.55;44.89
40075;BME280;26529;51.530;11.754;2022-12-18T10:29:57;101683.66;;;15.55;44.99
40075;BME280;26529;51.530;11.754;2022-12-18T10:32:28;101678.38;;;15.55;45.15
40075;BME280;26529;51.530;11.754;2022-12-18T10:34:56;101670.38;;;15.57;44.91
40075;BME280;26529;51.530;11.754;2022-12-18T10:37:25;101663.28;;;15.59;45.01
40075;BME280;26529;51.530;11.754;2022-12-18T10:40:14;101664.13;;;15.61;44.98
40075;BME280;26529;51.530;11.754;2022-12-18T10:42:41;101661.16;;;15.73;45.08
40075;BME280;26529;51.530;11.754;2022-12-18T10:45:15;101662.78;;;15.78;45.06
40075;BME280;26529;51.530;11.754;2022-12-18T10:47:46;101662.78;;;15.78;45.09
40075;BME280;26529;51.530;11.754;2022-12-18T10:50:38;101672.50;;;15.77;45.08
40075;BME280;26529;51.530;11.754;2022-12-18T10:53:05;101664.59;;;15.76;45.46
40075;BME280;26529;51.530;11.754;2022-12-18T10:55:35;101664.59;;;15.76;45.38
40075;BME280;26529;51.530;11.754;2022-12-18T10:58:31;101666.41;;;15.75;45.48
40075;BME280;26529;51.530;11.754;2022-12-18T11:01:16;101675.19;;;15.76;45.38
40075;BME280;26529;51.530;11.754;2022-12-18T11:06:14;101678.75;;;15.74;45.45
40075;BME280;26529;51.530;11.754;2022-12-18T11:08:41;101675.19;;;15.76;45.64
40075;BME280;26529;51.530;11.754;2022-12-18T11:11:24;101672.56;;;15.74;45.55
40075;BME280;26529;51.530;11.754;2022-12-18T11:16:25;101687.59;;;15.73;45.39
40075;BME280;26529;51.530;11.754;2022-12-18T11:18:52;101686.72;;;15.73;45.53
40075;BME280;26529;51.530;11.754;2022-12-18T11:21:17;101688.41;;;15.76;45.27
40075;BME280;26529;51.530;11.754;2022-12-18T11:23:50;101679.56;;;15.77;45.20
40075;BME280;26529;51.530;11.754;2022-12-18T11:26:17;101674.25;;;15.78;45.32
40075;BME280;26529;51.530;11.754;2022-12-18T11:28:50;101669.81;;;15.79;45.39
40075;BME280;26529;51.530;11.754;2022-12-18T11:34:10;101655.56;;;15.84;45.42
40075;BME280;26529;51.530;11.754;2022-12-18T11:36:42;101662.63;;;15.84;45.12
40075;BME280;26529;51.530;11.754;2022-12-18T11:39:24;101659.09;;;15.85;45.14
40075;BME280;26529;51.530;11.754;2022-12-18T11:41:57;101661.66;;;15.86;45.12
40075;BME280;26529;51.530;11.754;2022-12-18T11:44:41;101668.69;;;15.87;45.17
40075;BME280;26529;51.530;11.754;2022-12-18T11:47:24;101662.53;;;15.87;45.26
40075;BME280;26529;51.530;11.754;2022-12-18T11:49:55;101657.16;;;15.90;45.02
40075;BME280;26529;51.530;11.754;2022-12-18T11:52:35;101646.56;;;15.90;45.33
40075;BME280;26529;51.530;11.754;2022-12-18T11:55:11;101649.22;;;15.92;45.16
40075;BME280;26529;51.530;11.754;2022-12-18T11:57:40;101638.59;;;15.93;45.16
40075;BME280;26529;51.530;11.754;2022-12-18T12:00:18;101644.81;;;15.92;44.90
40075;BME280;26529;51.530;11.754;2022-12-18T12:03:06;101652.31;;;15.05;42.97
40075;BME280;26529;51.530;11.754;2022-12-18T12:23:55;101582.41;;;15.52;38.64
40075;BME280;26529;51.530;11.754;2022-12-18T12:26:45;101582.31;;;15.55;38.68
40075;BME280;26529;51.530;11.754;2022-12-18T12:40:22;101606.03;;;15.58;40.56
40075;BME280;26529;51.530;11.754;2022-12-18T12:42:55;101603.31;;;15.61;40.63
40075;BME280;26529;51.530;11.754;2022-12-18T12:45:42;101606.91;;;15.58;41.06
40075;BME280;26529;51.530;11.754;2022-12-18T12:48:22;101602.56;;;15.56;41.17
40075;BME280;26529;51.530;11.754;2022-12-18T12:50:50;101601.72;;;15.55;41.56
40075;BME280;26529;51.530;11.754;2022-12-18T12:53:23;101599.84;;;15.59;41.56
40075;BME280;26529;51.530;11.754;2022-12-18T12:55:51;101596.19;;;15.63;41.81
40075;BME280;26529;51.530;11.754;2022-12-18T13:01:09;101588.53;;;15.54;42.07
40075;BME280;26529;51.530;11.754;2022-12-18T13:09:01;101577.13;;;15.52;42.38
40075;BME280;26529;51.530;11.754;2022-12-18T13:14:30;101578.91;;;15.50;42.91
40075;BME280;26529;51.530;11.754;2022-12-18T13:19:44;101578.09;;;15.48;43.02
40075;BME280;26529;51.530;11.754;2022-12-18T13:22:32;101564.13;;;15.44;42.93
40075;BME280;26529;51.530;11.754;2022-12-18T13:24:59;101553.53;;;15.44;43.09
40075;BME280;26529;51.530;11.754;2022-12-18T13:40:59;101549.22;;;15.40;43.43
40075;BME280;26529;51.530;11.754;2022-12-18T13:43:35;101545.81;;;15.36;43.58
40075;BME280;26529;51.530;11.754;2022-12-18T13:46:21;101548.31;;;15.41;43.33
40075;BME280;26529;51.530;11.754;2022-12-18T13:51:43;101533.06;;;15.51;43.57
40075;BME280;26529;51.530;11.754;2022-12-18T13:54:19;101529.63;;;15.49;43.81
40075;BME280;26529;51.530;11.754;2022-12-18T13:56:46;101535.81;;;15.48;43.78
40075;BME280;26529;51.530;11.754;2022-12-18T13:59:13;101537.66;;;15.45;43.94
40075;BME280;26529;51.530;11.754;2022-12-18T14:01:52;101528.94;;;15.42;43.96
40075;BME280;26529;51.530;11.754;2022-12-18T14:04:19;101543.09;;;15.39;44.02
40075;BME280;26529;51.530;11.754;2022-12-18T14:06:46;101537.06;;;15.34;44.17
40075;BME280;26529;51.530;11.754;2022-12-18T14:09:15;101538.78;;;15.35;44.26
40075;BME280;26529;51.530;11.754;2022-12-18T14:11:46;101542.34;;;15.34;44.10
40075;BME280;26529;51.530;11.754;2022-12-18T14:14:15;101524.81;;;15.30;44.31
40075;BME280;26529;51.530;11.754;2022-12-18T14:16:41;101532.72;;;15.31;44.26
40075;BME280;26529;51.530;11.754;2022-12-18T14:19:16;101536.31;;;15.29;44.35
40075;BME280;26529;51.530;11.754;2022-12-18T14:21:49;101531.94;;;15.28;44.00
40075;BME280;26529;51.530;11.754;2022-12-18T14:24:21;101544.25;;;15.29;44.31
40075;BME280;26529;51.530;11.754;2022-12-18T14:26:48;101543.44;;;15.27;44.35
40075;BME280;26529;51.530;11.754;2022-12-18T14:29:29;101546.06;;;15.27;44.40
40075;BME280;26529;51.530;11.754;2022-12-18T14:34:30;101552.31;;;15.24;44.27
40075;BME280;26529;51.530;11.754;2022-12-18T14:36:56;101546.13;;;15.24;44.47
40075;BME280;26529;51.530;11.754;2022-12-18T14:39:21;101537.38;;;15.22;44.36